Time;durP1;ratioP1;P1;durP2;ratioP2;P2;SDS_P1;SDS_P2;PMS_P1;PMS_P2;Temp;Humidity;BMP_temperature;BMP_pressure;BME280_temperature;BME280_humidity;BME280_pressure;Samples;Min_cycle;Max_cycle;Signal;HPM_P1;HPM_P2
2023/12/15 00:00:50;;;;;;;25.40;14.43;;;;;;;;;;4761601;30;20123;-96
2023/12/15 00:03:16;;;;;;;20.88;12.15;;;;;;;;;;4745418;30;20064;-96
2023/12/15 00:05:42;;;;;;;25.33;14.75;;;;;;;;;;4775106;30;20068;-95
2023/12/15 00:08:08;;;;;;;23.58;14.07;;;;;;;;;;4746485;30;20075;-94
2023/12/15 00:10:35;;;;;;;32.85;14.95;;;;;;;;;;4734261;30;20048;-95
2023/12/15 00:13:01;;;;;;;26.40;13.95;;;;;;;;;;4728950;30;20040;-91
2023/12/15 00:15:27;;;;;;;24.35;13.70;;;;;;;;;;4729985;29;20093;-92
2023/12/15 00:17:53;;;;;;;22.65;13.23;;;;;;;;;;4745680;29;20055;-95
2023/12/15 00:37:16;;;;;;;21.77;14.27;;;;;;;;;;4891786;24;20054;-92
2023/12/15 00:48:00;;;;;;;25.52;15.00;;;6.00;99.90;;;;;;4829805;29;20072;-92
2023/12/15 00:54:37;;;;;;;31.42;16.55;;;;;;;;;;4975977;24;20043;-92
2023/12/15 01:10:33;;;;;;;32.42;18.08;;;;;;;;;;4852925;24;20046;-91
2023/12/15 01:18:06;;;;;;;39.13;20.27;;;;;;;;;;4887573;24;20045;-95
2023/12/15 01:25:25;;;;;;;38.42;20.45;;;6.60;99.90;;;;;;5198990;24;20029;-90
2023/12/15 01:45:16;;;;;;;32.65;17.48;;;;;;;;;;5121208;24;20078;-90
2023/12/15 02:22:59;;;;;;;47.40;20.98;;;;;;;;;;4871780;24;20063;-91
2023/12/15 02:29:09;;;;;;;44.47;21.05;;;6.70;99.90;;;;;;4922480;24;20075;-92
2023/12/15 02:31:58;;;;;;;43.75;20.23;;;;;;;;;;4792422;30;20131;-90
2023/12/15 02:45:23;;;;;;;37.03;19.73;;;;;;;;;;4857944;24;20058;-95
2023/12/15 02:47:51;;;;;;;40.85;19.75;;;;;;;;;;4829540;29;20303;-96
2023/12/15 02:50:18;;;;;;;43.00;19.92;;;;;;;;;;4843830;29;20058;-96
2023/12/15 02:52:45;;;;;;;38.15;19.85;;;;;;;;;;4843296;29;20058;-96
2023/12/15 02:55:23;;;;;;;37.33;20.08;;;;;;;;;;4847108;24;20070;-96
2023/12/15 02:57:51;;;;;;;36.10;20.75;;;;;;;;;;4824036;29;20115;-96
2023/12/15 03:00:17;;;;;;;36.35;19.40;;;;;;;;;;4807799;29;20053;-95
2023/12/15 03:02:44;;;;;;;32.67;18.48;;;;;;;;;;4810567;29;20405;-96
2023/12/15 03:05:26;;;;;;;36.00;19.10;;;;;;;;;;4798846;29;20059;-96
2023/12/15 03:07:53;;;;;;;39.15;18.65;;;;;;;;;;4806709;30;20103;-96
2023/12/15 03:10:19;;;;;;;29.02;17.90;;;;;;;;;;4778208;29;20066;-93
2023/12/15 03:12:53;;;;;;;36.13;18.33;;;;;;;;;;4812761;29;20034;-94
2023/12/15 03:15:48;;;;;;;35.85;18.10;;;;;;;;;;4851311;24;20038;-92
2023/12/15 03:18:18;;;;;;;32.40;18.50;;;;;;;;;;4847124;29;20062;-94
2023/12/15 03:21:10;;;;;;;27.48;16.50;;;;;;;;;;4846535;29;20046;-93
2023/12/15 03:23:36;;;;;;;34.25;18.17;;;;;;;;;;4847894;29;20069;-95
2023/12/15 03:26:20;;;;;;;29.95;16.83;;;;;;;;;;4847449;29;20099;-96
2023/12/15 03:28:51;;;;;;;39.45;18.45;;;;;;;;;;4839088;24;20026;-92
2023/12/15 03:44:39;;;;;;;33.53;17.02;;;;;;;;;;4844767;24;20059;-93
2023/12/15 03:57:20;;;;;;;28.00;15.07;;;6.20;99.90;;;;;;4971128;24;20066;-94
2023/12/15 04:12:43;;;;;;;31.02;15.20;;;5.90;99.90;;;;;;4927531;24;20051;-90
2023/12/15 04:22:25;;;;;;;36.10;15.65;;;;;;;;;;4952568;24;20058;-93
2023/12/15 04:25:24;;;;;;;33.85;13.60;;;;;;;;;;4773525;30;20048;-95
2023/12/15 04:28:38;;;;;;;31.25;13.77;;;5.80;99.90;;;;;;4772534;30;20110;-91
2023/12/15 04:31:23;;;;;;;33.00;13.18;;;;;;;;;;4806563;29;20063;-91
2023/12/15 04:33:55;;;;;;;27.83;11.93;;;;;;;;;;4808935;24;20043;-92
2023/12/15 04:43:15;;;;;;;32.03;13.35;;;;;;;;;;4883123;24;20030;-93
2023/12/15 04:52:03;;;;;;;30.38;11.30;;;5.70;99.90;;;;;;4177040;24;20054;-92
2023/12/15 04:59:01;;;;;;;20.13;10.05;;;5.90;99.90;;;;;;4931874;24;20078;-90
2023/12/15 05:05:19;;;;;;;32.75;10.65;;;;;;;;;;5192915;24;20017;-90
2023/12/15 05:11:28;;;;;;;25.38;9.90;;;;;;;;;;4990257;24;20046;-89
2023/12/15 05:14:44;;;;;;;28.58;10.68;;;;;;;;;;4889792;24;20071;-92
2023/12/15 05:25:27;;;;;;;33.55;9.32;;;6.00;99.90;;;;;;4848715;24;20078;-94
2023/12/15 05:32:27;;;;;;;25.33;10.80;;;5.70;99.90;;;;;;4835762;29;20029;-92
2023/12/15 05:44:24;;;;;;;23.98;8.90;;;;;;;;;;4870371;24;20091;-96
2023/12/15 05:55:17;;;;;;;21.45;9.75;;;;;;;;;;4958100;24;20055;-96
2023/12/15 05:58:27;;;;;;;24.75;10.70;;;;;;;;;;4819343;29;20130;-95
2023/12/15 06:04:04;;;;;;;29.67;10.07;;;;;;;;;;4957588;24;20041;-93
2023/12/15 06:09:56;;;;;;;17.58;8.30;;;;;;;;;;4645189;24;20062;-95
2023/12/15 06:12:23;;;;;;;25.45;9.70;;;;;;;;;;4791018;30;20088;-93
2023/12/15 06:14:49;;;;;;;26.92;8.52;;;;;;;;;;4798541;29;20039;-94
2023/12/15 06:17:33;;;;;;;38.08;9.18;;;;;;;;;;4779065;30;20058;-96
2023/12/15 06:20:02;;;;;;;36.42;10.55;;;;;;;;;;4811073;29;20493;-93
2023/12/15 06:22:53;;;;;;;24.77;9.18;;;;;;;;;;4815680;29;20082;-94
2023/12/15 06:28:46;;;;;;;24.20;7.70;;;;;;;;;;4821169;29;20047;-96
2023/12/15 06:31:12;;;;;;;24.25;8.32;;;;;;;;;;4806257;29;20047;-94
2023/12/15 06:33:45;;;;;;;31.40;8.73;;;;;;;;;;4798578;29;20054;-92
2023/12/15 06:36:14;;;;;;;28.45;8.38;;;;;;;;;;4784418;29;20053;-95
2023/12/15 06:38:48;;;;;;;22.30;7.82;;;;;;;;;;4826965;29;20057;-96
2023/12/15 06:41:30;;;;;;;30.20;8.63;;;;;;;;;;4812050;29;20047;-93
2023/12/15 06:43:56;;;;;;;38.25;8.57;;;;;;;;;;4809202;29;20123;-93
2023/12/15 06:46:22;;;;;;;32.20;7.28;;;;;;;;;;4805837;29;20119;-92
2023/12/15 06:48:48;;;;;;;30.55;7.43;;;;;;;;;;4780482;29;20513;-93
2023/12/15 06:51:14;;;;;;;30.13;7.88;;;;;;;;;;4790992;29;20050;-91
2023/12/15 06:53:41;;;;;;;26.67;8.65;;;;;;;;;;4775292;29;20459;-91
2023/12/15 06:56:07;;;;;;;28.92;6.97;;;;;;;;;;4773168;30;20066;-94
2023/12/15 06:58:33;;;;;;;22.90;6.43;;;;;;;;;;4773147;30;20138;-93
2023/12/15 07:00:59;;;;;;;26.92;6.78;;;;;;;;;;4790503;29;20065;-93
2023/12/15 07:03:25;;;;;;;33.95;7.50;;;;;;;;;;4790619;29;20057;-91
2023/12/15 07:05:51;;;;;;;26.67;7.70;;;;;;;;;;4788264;29;20137;-95
2023/12/15 07:08:18;;;;;;;23.65;7.18;;;;;;;;;;4778503;29;20504;-93
2023/12/15 07:10:45;;;;;;;26.08;7.43;;;;;;;;;;4809537;24;20051;-90
2023/12/15 07:13:12;;;;;;;25.05;6.15;;;;;;;;;;4845303;24;21915;-94
2023/12/15 07:15:57;;;;;;;23.75;7.78;;;;;;;;;;4813637;29;20038;-92
2023/12/15 07:27:47;;;;;;;24.67;7.10;;;;;;;;;;4878026;24;20078;-94
2023/12/15 07:35:52;;;;;;;31.23;8.48;;;;;;;;;;4241323;27;20043;-91
2023/12/15 07:54:25;;;;;;;26.45;6.88;;;;;;;;;;4809875;29;20062;-94
2023/12/15 07:57:36;;;;;;;22.67;6.57;;;5.80;99.90;;;;;;4816435;29;20099;-96
2023/12/15 08:00:37;;;;;;;32.42;7.88;;;;;;;;;;4784150;24;20143;-94
2023/12/15 08:03:33;;;;;;;32.92;6.22;;;;;;;;;;4739018;30;20185;-95
2023/12/15 08:06:13;;;;;;;25.13;5.90;;;;;;;;;;4784785;29;20054;-94
2023/12/15 08:08:40;;;;;;;27.70;6.18;;;;;;;;;;4787289;30;20544;-93
2023/12/15 08:11:42;;;;;;;34.65;6.93;;;;;;;;;;4799874;24;20047;-91
2023/12/15 08:14:12;;;;;;;21.95;7.65;;;;;;;;;;4857314;24;20074;-90
2023/12/15 08:16:59;;;;;;;24.52;6.78;;;;;;;;;;4813373;29;20107;-93
2023/12/15 08:26:03;;;;;;;34.35;6.40;;;5.80;99.90;;;;;;4826474;29;20035;-90
2023/12/15 08:35:48;;;;;;;28.58;6.15;;;;;;;;;;4791419;29;20509;-94
2023/12/15 08:38:17;;;;;;;23.38;6.43;;;;;;;;;;4792087;29;20047;-92
2023/12/15 08:41:16;;;;;;;30.83;7.45;;;5.90;99.90;;;;;;4766470;30;20062;-93
2023/12/15 08:46:28;;;;;;;26.50;6.30;;;;;;;;;;4836487;24;20059;-93
2023/12/15 08:51:49;;;;;;;27.75;7.75;;;;;;;;;;4111597;27;20437;-92
2023/12/15 08:57:13;;;;;;;24.80;7.22;;;;;;;;;;4824101;24;20865;-93
2023/12/15 09:00:11;;;;;;;34.00;6.82;;;;;;;;;;4796710;29;20116;-94
2023/12/15 09:05:13;;;;;;;27.52;6.38;;;;;;;;;;4843796;24;20067;-93
2023/12/15 09:08:02;;;;;;;23.65;5.93;;;;;;;;;;4840160;29;20050;-94
2023/12/15 09:10:51;;;;;;;24.38;6.00;;;;;;;;;;4840162;29;20043;-90
2023/12/15 09:13:27;;;;;;;;;;;;;;;;;;4841062;29;20046;-90
2023/12/15 09:16:26;;;;;;;19.85;5.68;;;;;;;;;;4811863;29;19925;-89
2023/12/15 09:19:11;;;;;;;36.45;6.72;;;;;;;;;;4768650;30;20495;-90
2023/12/15 09:21:50;;;;;;;36.33;6.60;;;;;;;;;;4770490;30;20067;-94
2023/12/15 09:24:17;;;;;;;32.05;6.63;;;;;;;;;;4759017;30;20096;-95
2023/12/15 09:26:45;;;;;;;35.08;7.72;;;;;;;;;;4759080;30;20099;-94
2023/12/15 09:29:44;;;;;;;32.17;6.70;;;;;;;;;;4759160;30;20039;-92
2023/12/15 09:32:46;;;;;;;25.05;6.82;;;;;;;;;;4742069;30;20052;-91
2023/12/15 09:35:27;;;;;;;29.00;7.68;;;;;;;;;;4702965;30;20096;-91
2023/12/15 09:38:00;;;;;;;21.98;7.18;;;;;;;;;;4686723;30;20133;-92
2023/12/15 09:40:29;;;;;;;20.80;8.13;;;;;;;;;;4667585;30;20085;-91
2023/12/15 09:43:04;;;;;;;38.33;7.72;;;;;;;;;;4782830;24;20104;-91
2023/12/15 09:45:41;;;;;;;27.23;7.53;;;;;;;;;;4816292;29;20061;-92
2023/12/15 09:48:09;;;;;;;38.63;7.85;;;;;;;;;;4807358;29;20488;-91
2023/12/15 10:00:44;;;;;;;27.73;8.63;;;6.80;99.90;;;;;;4056288;24;20046;-91
2023/12/15 10:03:30;;;;;;;38.58;7.20;;;;;;;;;;4847085;29;20112;-91
2023/12/15 10:09:45;;;;;;;31.88;6.85;;;;;;;;;;4827257;29;20031;-90
2023/12/15 10:24:04;;;;;;;25.40;8.93;;;7.10;99.90;;;;;;4815805;29;19909;-88
2023/12/15 10:27:02;;;;;;;28.50;8.00;;;;;;;;;;4820366;29;20031;-88
2023/12/15 10:33:03;;;;;;;27.77;7.18;;;;;;;;;;3150039;27;20093;-88
2023/12/15 10:36:08;;;;;;;33.72;6.63;;;;;;;;;;4814339;29;20059;-89
2023/12/15 10:42:28;;;;;;;31.90;7.25;;;;;;;;;;4796328;29;20104;-93
2023/12/15 10:45:13;;;;;;;32.33;7.70;;;;;;;;;;4777344;29;20054;-91
2023/12/15 10:50:24;;;;;;;33.03;8.20;;;;;;;;;;4857067;24;20066;-89
2023/12/15 10:52:52;;;;;;;33.80;7.80;;;;;;;;;;4783260;29;20084;-91
2023/12/15 10:55:25;;;;;;;29.88;7.43;;;;;;;;;;4779374;29;20047;-92
2023/12/15 10:57:52;;;;;;;34.67;8.05;;;;;;;;;;4795947;29;20489;-93
2023/12/15 11:00:19;;;;;;;28.90;7.45;;;;;;;;;;4798350;29;20099;-93
2023/12/15 11:02:46;;;;;;;34.80;7.68;;;;;;;;;;4770130;29;20073;-89
2023/12/15 11:05:12;;;;;;;32.10;7.55;;;;;;;;;;4776676;29;20051;-93
2023/12/15 11:07:40;;;;;;;30.05;7.07;;;;;;;;;;4770311;29;20043;-95
2023/12/15 11:10:12;;;;;;;31.05;8.13;;;;;;;;;;4794114;29;20228;-96
2023/12/15 11:12:39;;;;;;;25.00;8.38;;;;;;;;;;4763078;29;20143;-95
2023/12/15 11:15:20;;;;;;;28.92;7.03;;;;;;;;;;4762057;29;20544;-93
2023/12/15 11:17:53;;;;;;;35.78;6.25;;;;;;;;;;4778681;29;20051;-95
2023/12/15 11:20:19;;;;;;;27.17;7.50;;;;;;;;;;4774831;29;20051;-93
2023/12/15 11:29:31;;;;;;;47.63;8.63;;;;;;;;;;4828950;24;20082;-88
2023/12/15 11:41:51;;;;;;;28.33;7.75;;;;;;;;;;5667270;24;20058;-89
2023/12/15 11:45:31;;;;;;;28.08;7.97;;;;;;;;;;4987005;24;20098;-88
2023/12/15 11:48:51;;;;;;;32.70;7.45;;;;;;;;;;4848892;24;20047;-89
2023/12/15 12:02:28;;;;;;;19.63;7.03;;;;;;;;;;2254835;27;20454;-91
2023/12/15 12:04:59;;;;;;;28.23;8.05;;;;;;;;;;4808403;29;20055;-92
2023/12/15 12:07:28;;;;;;;31.05;7.20;;;;;;;;;;4805766;29;20057;-92
2023/12/15 12:10:13;;;;;;;32.83;8.27;;;;;;;;;;4795415;29;20051;-90
2023/12/15 12:13:02;;;;;;;33.25;8.05;;;;;;;;;;4804964;29;20054;-90
2023/12/15 12:15:59;;;;;;;28.55;7.35;;;;;;;;;;4791465;30;20047;-89
2023/12/15 12:18:49;;;;;;;35.42;8.20;;;;;;;;;;4771993;30;20063;-90
2023/12/15 12:21:50;;;;;;;40.40;8.32;;;;;;;;;;4726872;30;20058;-90
2023/12/15 12:24:34;;;;;;;29.73;7.03;;;;;;;;;;4756888;30;20083;-91
2023/12/15 12:28:05;;;;;;;33.50;7.13;;;;;;;;;;4776972;30;20074;-90
2023/12/15 12:30:50;;;;;;;22.65;7.18;;;;;;;;;;4696355;30;20062;-91
2023/12/15 12:38:53;;;;;;;30.55;7.35;;;;;;;;;;4823217;29;20062;-90
2023/12/15 12:44:09;;;;;;;26.33;8.43;;;;;;;;;;4832734;24;20047;-90
2023/12/15 12:46:51;;;;;;;32.55;7.43;;;;;;;;;;4823218;29;20084;-90
2023/12/15 12:52:11;;;;;;;36.33;7.95;;;;;;;;;;5247308;24;20107;-90
2023/12/15 12:55:28;;;;;;;30.10;7.40;;;;;;;;;;5068013;24;20152;-88
2023/12/15 12:58:43;;;;;;;28.88;7.10;;;;;;;;;;4759941;30;20095;-95
2023/12/15 13:01:30;;;;;;;23.55;5.72;;;;;;;;;;4799492;29;20050;-91
2023/12/15 13:04:06;;;;;;;21.80;6.68;;;;;;;;;;4759152;29;20055;-91
2023/12/15 13:06:43;;;;;;;28.23;6.85;;;;;;;;;;4796998;29;20059;-94
2023/12/15 13:09:09;;;;;;;27.45;6.78;;;;;;;;;;4724274;30;20079;-93
2023/12/15 13:11:47;;;;;;;28.38;6.22;;;;;;;;;;4722812;30;20052;-90
2023/12/15 13:14:34;;;;;;;24.38;6.80;;;;;;;;;;4719061;30;20577;-92
2023/12/15 13:17:07;;;;;;;21.40;6.50;;;;;;;;;;4730495;30;20467;-93
2023/12/15 13:19:47;;;;;;;30.45;6.95;;;;;;;;;;4722096;30;20099;-93
2023/12/15 13:22:27;;;;;;;27.10;6.50;;;;;;;;;;4743870;30;20273;-90
2023/12/15 13:25:03;;;;;;;19.52;6.82;;;;;;;;;;4679099;30;20054;-90
2023/12/15 13:27:58;;;;;;;39.83;6.40;;;;;;;;;;5183421;24;20870;-90
2023/12/15 13:30:37;;;;;;;24.35;7.03;;;;;;;;;;4796763;29;20081;-90
2023/12/15 13:33:22;;;;;;;24.65;6.30;;;;;;;;;;4798664;24;20059;-90
2023/12/15 13:36:02;;;;;;;21.70;6.05;;;;;;;;;;4776319;29;20056;-89
2023/12/15 13:38:37;;;;;;;26.67;7.85;;;;;;;;;;4775200;30;20048;-90
2023/12/15 13:41:08;;;;;;;27.30;5.55;;;;;;;;;;4775888;29;20123;-90
2023/12/15 13:44:25;;;;;;;20.08;6.18;;;;;;;;;;4755291;30;20055;-89
2023/12/15 13:47:56;;;;;;;16.30;6.43;;;;;;;;;;4757579;30;20139;-90
2023/12/15 13:50:27;;;;;;;20.92;5.38;;;;;;;;;;4726104;30;20056;-89
2023/12/15 13:53:03;;;;;;;18.27;5.50;;;;;;;;;;4834581;24;20173;-91
2023/12/15 13:55:38;;;;;;;22.88;6.10;;;;;;;;;;4781816;29;20053;-90
2023/12/15 13:58:09;;;;;;;26.10;7.45;;;;;;;;;;4788806;29;20047;-91
2023/12/15 14:00:41;;;;;;;24.23;5.28;;;;;;;;;;4760575;29;20055;-90
2023/12/15 14:03:21;;;;;;;26.67;5.90;;;;;;;;;;4774873;29;20051;-91
2023/12/15 14:05:53;;;;;;;18.95;4.55;;;;;;;;;;4772609;30;20239;-90
2023/12/15 14:08:28;;;;;;;24.63;4.70;;;;;;;;;;4775443;30;20058;-88
2023/12/15 14:11:01;;;;;;;19.60;6.05;;;;;;;;;;4773166;29;20047;-90
2023/12/15 14:13:42;;;;;;;20.27;5.32;;;;;;;;;;4775507;29;20059;-90
2023/12/15 14:16:08;;;;;;;24.40;6.82;;;;;;;;;;4775795;29;20043;-90
2023/12/15 14:18:39;;;;;;;14.32;4.95;;;;;;;;;;4774048;30;20505;-90
2023/12/15 14:21:05;;;;;;;14.05;5.05;;;;;;;;;;4772112;30;20055;-89
2023/12/15 14:23:31;;;;;;;18.65;5.38;;;;;;;;;;4778232;29;20055;-89
2023/12/15 14:26:05;;;;;;;15.68;5.00;;;;;;;;;;4773971;29;20100;-92
2023/12/15 14:28:41;;;;;;;18.80;5.25;;;;;;;;;;4787365;29;20072;-90
2023/12/15 14:31:09;;;;;;;19.35;5.57;;;;;;;;;;4772669;29;20090;-90
2023/12/15 14:33:36;;;;;;;21.50;4.88;;;;;;;;;;4755731;30;20059;-90
2023/12/15 14:36:09;;;;;;;20.73;5.85;;;;;;;;;;4753087;30;20489;-89
2023/12/15 14:38:43;;;;;;;22.20;4.63;;;;;;;;;;4781416;30;20055;-89
2023/12/15 14:41:11;;;;;;;16.88;5.05;;;;;;;;;;4758890;30;21039;-89
2023/12/15 14:43:41;;;;;;;20.50;4.53;;;;;;;;;;4803879;29;20073;-90
2023/12/15 14:46:07;;;;;;;18.17;5.18;;;;;;;;;;4781403;29;20059;-89
2023/12/15 14:48:35;;;;;;;16.17;5.00;;;;;;;;;;4764047;29;20054;-91
2023/12/15 14:51:05;;;;;;;20.20;5.30;;;;;;;;;;4762695;30;20055;-90
2023/12/15 14:53:32;;;;;;;22.05;4.97;;;;;;;;;;4763975;30;20059;-88
2023/12/15 14:55:58;;;;;;;18.55;5.38;;;;;;;;;;4764234;30;20039;-90
2023/12/15 14:58:24;;;;;;;20.63;5.60;;;;;;;;;;4777406;29;20058;-90
2023/12/15 15:00:51;;;;;;;19.33;5.93;;;;;;;;;;4766031;30;20055;-91
2023/12/15 15:03:17;;;;;;;25.10;4.82;;;;;;;;;;4764848;30;20051;-90
2023/12/15 15:05:43;;;;;;;19.23;5.13;;;;;;;;;;4762438;30;20081;-89
2023/12/15 15:08:11;;;;;;;18.70;5.20;;;;;;;;;;4786852;29;20127;-90
2023/12/15 15:10:38;;;;;;;22.55;5.82;;;;;;;;;;4768309;30;20130;-90
2023/12/15 15:13:04;;;;;;;19.20;6.35;;;;;;;;;;4766762;29;20081;-89
2023/12/15 15:15:33;;;;;;;24.58;5.57;;;;;;;;;;4768032;29;20062;-91
2023/12/15 15:17:59;;;;;;;19.05;5.22;;;;;;;;;;4768475;29;20043;-91
2023/12/15 15:20:25;;;;;;;23.98;6.15;;;;;;;;;;4768523;30;20070;-91
2023/12/15 15:22:53;;;;;;;19.05;5.97;;;;;;;;;;4752376;30;20126;-90
2023/12/15 15:25:20;;;;;;;22.40;6.30;;;;;;;;;;4751299;30;20071;-92
2023/12/15 15:27:46;;;;;;;17.75;5.97;;;;;;;;;;4749471;30;20059;-89
2023/12/15 15:30:13;;;;;;;24.38;5.50;;;;;;;;;;4768029;29;20133;-92
2023/12/15 15:32:39;;;;;;;26.02;5.70;;;;;;;;;;4766052;30;20051;-90
2023/12/15 15:35:09;;;;;;;18.70;5.60;;;;;;;;;;4765479;29;20047;-91
2023/12/15 15:37:35;;;;;;;20.15;5.88;;;;;;;;;;4765091;30;20083;-90
2023/12/15 15:40:07;;;;;;;24.55;5.55;;;;;;;;;;4767735;30;20047;-89
2023/12/15 15:42:43;;;;;;;21.27;5.70;;;;;;;;;;4786055;30;20055;-89
2023/12/15 15:45:12;;;;;;;17.10;5.15;;;;;;;;;;4776016;30;20047;-89
2023/12/15 15:47:39;;;;;;;22.30;5.65;;;;;;;;;;4777429;30;20077;-90
2023/12/15 15:53:29;;;;;;;20.08;4.30;;;;;;;;;;4846505;24;20061;-89
2023/12/15 15:55:55;;;;;;;25.85;6.57;;;;;;;;;;4791652;29;20047;-90
2023/12/15 15:58:30;;;;;;;25.13;5.40;;;;;;;;;;4794651;29;20474;-90
2023/12/15 16:01:05;;;;;;;22.90;5.22;;;;;;;;;;4792606;29;20073;-90
2023/12/15 16:03:48;;;;;;;16.23;5.05;;;;;;;;;;4793605;29;20112;-89
2023/12/15 16:06:19;;;;;;;18.45;5.47;;;;;;;;;;4793062;29;20404;-90
2023/12/15 16:08:51;;;;;;;27.20;5.53;;;;;;;;;;4806898;29;20535;-90
2023/12/15 16:11:24;;;;;;;24.02;5.43;;;;;;;;;;4808158;29;20043;-88
2023/12/15 16:27:48;;;;;;;27.10;6.18;;;;;;;;;;5174826;24;20050;-89
2023/12/15 16:30:22;;;;;;;24.67;6.20;;;;;;;;;;4822153;29;20055;-89
2023/12/15 16:32:55;;;;;;;27.70;6.13;;;;;;;;;;4827757;29;20080;-90
2023/12/15 16:35:24;;;;;;;21.33;5.00;;;;;;;;;;4822289;29;20121;-89
2023/12/15 16:38:04;;;;;;;17.95;7.10;;;;;;;;;;4826807;29;20067;-89
2023/12/15 16:40:32;;;;;;;29.23;6.18;;;;;;;;;;4810564;29;20058;-89
2023/12/15 16:43:05;;;;;;;15.85;6.00;;;;;;;;;;4829242;29;20057;-89
2023/12/15 16:45:34;;;;;;;22.02;5.45;;;;;;;;;;4829362;29;20504;-89
2023/12/15 16:48:07;;;;;;;27.80;6.50;;;;;;;;;;4829005;29;20053;-88
2023/12/15 16:50:54;;;;;;;22.35;6.47;;;;;;;;;;4823831;29;20112;-89
2023/12/15 16:53:33;;;;;;;21.10;6.95;;;;;;;;;;4809506;29;20046;-89
2023/12/15 16:56:03;;;;;;;32.85;6.85;;;;;;;;;;4807080;29;20120;-88
2023/12/15 16:58:30;;;;;;;17.85;6.32;;;;;;;;;;4820471;29;20476;-90
2023/12/15 17:00:58;;;;;;;31.17;5.97;;;;;;;;;;4804324;29;20050;-90
2023/12/15 17:03:42;;;;;;;17.90;5.18;;;;;;;;;;4828179;29;20062;-89
2023/12/15 17:06:12;;;;;;;23.27;6.10;;;;;;;;;;4827810;29;20050;-90
2023/12/15 17:08:45;;;;;;;15.13;5.68;;;;;;;;;;4809156;29;20074;-89
2023/12/15 17:11:14;;;;;;;;;;;;;;;;;;4826190;29;20046;-90
2023/12/15 17:13:45;;;;;;;17.95;5.78;;;;;;;;;;4824567;29;19928;-88
2023/12/15 17:16:18;;;;;;;24.98;5.45;;;;;;;;;;4830514;29;20050;-89
2023/12/15 17:18:54;;;;;;;25.00;6.57;;;;;;;;;;4824194;29;20058;-90
2023/12/15 17:21:25;;;;;;;19.75;5.53;;;;;;;;;;4791764;29;20087;-88
2023/12/15 17:23:58;;;;;;;21.70;5.28;;;;;;;;;;4782185;29;20164;-89
2023/12/15 17:26:45;;;;;;;28.95;5.32;;;;;;;;;;4806028;29;20084;-89
2023/12/15 17:29:13;;;;;;;23.90;5.10;;;;;;;;;;4770173;30;20076;-89
2023/12/15 17:31:51;;;;;;;17.23;5.93;;;;;;;;;;4754304;30;20039;-89
2023/12/15 17:34:18;;;;;;;14.50;5.25;;;;;;;;;;4765216;30;20086;-89
2023/12/15 17:36:55;;;;;;;20.63;5.45;;;;;;;;;;4768769;30;20080;-90
2023/12/15 17:39:57;;;;;;;12.63;5.13;;;;;;;;;;4741232;30;20067;-88
2023/12/15 17:42:45;;;;;;;16.67;6.15;;;;;;;;;;4814807;24;20089;-89
2023/12/15 17:45:26;;;;;;;31.52;7.32;;;;;;;;;;4792102;29;20055;-90
2023/12/15 17:47:54;;;;;;;32.70;6.65;;;;;;;;;;4828706;29;20051;-89
2023/12/15 17:50:52;;;;;;;23.65;6.45;;;;;;;;;;4814404;29;20073;-90
2023/12/15 17:53:28;;;;;;;17.30;5.63;;;;;;;;;;4800616;24;20053;-88
2023/12/15 18:40:15;;;;;;;20.02;5.43;;;;;;;;;;4983362;24;20063;-90
2023/12/15 18:42:45;;;;;;;15.73;4.30;;;;;;;;;;4802945;29;20062;-89
2023/12/15 18:45:12;;;;;;;15.88;4.75;;;;;;;;;;4789662;29;20062;-89
2023/12/15 18:47:38;;;;;;;17.73;5.18;;;;;;;;;;4781316;29;20039;-90
2023/12/15 18:50:14;;;;;;;20.48;5.15;;;;;;;;;;4796655;29;20220;-89
2023/12/15 18:52:44;;;;;;;17.67;4.97;;;;;;;;;;4803869;29;20572;-91
2023/12/15 18:55:24;;;;;;;21.48;5.53;;;;;;;;;;4803325;29;20055;-89
2023/12/15 18:57:50;;;;;;;14.07;4.35;;;;;;;;;;4783073;29;20101;-89
2023/12/15 19:00:23;;;;;;;21.50;4.82;;;;;;;;;;4767338;30;20152;-89
2023/12/15 19:02:57;;;;;;;18.10;5.50;;;;;;;;;;4770941;30;20258;-91
2023/12/15 19:05:26;;;;;;;21.85;6.00;;;;;;;;;;4782711;30;20578;-90
2023/12/15 19:07:58;;;;;;;11.57;5.05;;;;;;;;;;4776965;30;20055;-90
2023/12/15 19:10:24;;;;;;;29.98;6.88;;;;;;;;;;4770622;30;20039;-91
2023/12/15 19:12:51;;;;;;;16.98;5.15;;;;;;;;;;4747376;30;20538;-91
2023/12/15 19:15:44;;;;;;;21.30;5.70;;;;;;;;;;4746377;30;20536;-90
2023/12/15 19:18:11;;;;;;;17.88;6.43;;;;;;;;;;4747143;30;20067;-90
2023/12/15 19:20:40;;;;;;;17.38;5.00;;;;;;;;;;4717951;30;20069;-89
2023/12/15 19:23:10;;;;;;;17.58;6.40;;;;;;;;;;4732921;30;20055;-90
2023/12/15 19:25:37;;;;;;;27.33;6.05;;;;;;;;;;4714217;30;20097;-89
2023/12/15 19:28:26;;;;;;;15.45;5.47;;;;;;;;;;4703835;30;20454;-90
2023/12/15 19:30:55;;;;;;;22.27;5.70;;;;;;;;;;4741780;30;20048;-90
2023/12/15 19:33:30;;;;;;;16.90;5.00;;;;;;;;;;4747925;30;20131;-90
2023/12/15 19:36:08;;;;;;;19.65;5.53;;;;;;;;;;4731880;30;20086;-89
2023/12/15 19:38:49;;;;;;;20.60;4.78;;;;;;;;;;4734520;30;20120;-90
2023/12/15 19:41:19;;;;;;;26.70;5.25;;;;;;;;;;4720027;30;20056;-90
2023/12/15 19:43:49;;;;;;;18.15;4.38;;;;;;;;;;4744763;30;20097;-89
2023/12/15 19:46:43;;;;;;;24.35;6.22;;;;;;;;;;4753342;30;20601;-89
2023/12/15 19:49:19;;;;;;;19.95;5.65;;;;;;;;;;4739260;30;20044;-89
2023/12/15 19:52:05;;;;;;;21.25;4.78;;;;;;;;;;4833254;24;20160;-87
2023/12/15 19:54:42;;;;;;;12.35;3.92;;;;;;;;;;4805582;29;20047;-89
2023/12/15 21:19:50;;;;;;;;;;;;;;;;;;;;;
2023/12/15 21:29:10;;;;;;;17.70;5.50;;;;;;;;;;4841152;24;20046;-92
2023/12/15 21:31:36;;;;;;;19.10;4.10;;;;;;;;;;4791111;29;20127;-91
2023/12/15 21:42:48;;;;;;;25.17;7.07;;;;;;;;;;5591369;24;20074;-88
2023/12/15 21:46:05;;;;;;;14.93;5.57;;;;;;;;;;4764289;30;20080;-88
2023/12/15 21:48:43;;;;;;;13.73;4.97;;;;;;;;;;4907123;24;20059;-92
2023/12/15 21:51:26;;;;;;;20.25;5.07;;;;;;;;;;4787049;29;20061;-92
2023/12/15 21:53:54;;;;;;;19.42;5.30;;;;;;;;;;4766316;29;20047;-91
2023/12/15 21:56:24;;;;;;;14.45;4.53;;;;;;;;;;4794667;29;20501;-91
2023/12/15 21:58:53;;;;;;;13.30;5.10;;;;;;;;;;4780950;29;20055;-91
2023/12/15 23:15:12;;;;;;;8.38;4.20;;;;;;;;;;5757382;24;20026;-94
2023/12/15 23:18:02;;;;;;;6.85;2.42;;;;;;;;;;4794024;30;20081;-94
2023/12/15 23:20:47;;;;;;;10.57;2.72;;;;;;;;;;4789269;30;20052;-94
2023/12/15 23:23:35;;;;;;;9.02;2.70;;;;;;;;;;4787830;29;20062;-93
2023/12/15 23:28:48;;;;;;;11.32;2.88;;;;;;;;;;5069182;24;19974;-94
2023/12/15 23:31:35;;;;;;;;;;;;;;;;;;;;;
2023/12/15 23:37:35;;;;;;;7.80;3.13;;;;;;;;;;5312714;24;20081;-93
2023/12/15 23:42:58;;;;;;;6.82;2.72;;;;;;;;;;5091903;24;20113;-93
2023/12/15 23:45:54;;;;;;;5.75;3.20;;;;;;;;;;4843944;29;20091;-93
2023/12/15 23:49:04;;;;;;;10.52;4.07;;;;;;;;;;4844236;29;20046;-94
2023/12/15 23:51:52;;;;;;;7.38;2.97;;;;;;;;;;5058591;24;20066;-94
2023/12/15 23:54:42;;;;;;;6.28;2.75;;;;;;;;;;5006371;24;20072;-91
2023/12/15 23:57:28;;;;;;;13.25;2.33;;;;;;;;;;4843922;29;20107;-93
